Time;durP1;ratioP1;P1;durP2;ratioP2;P2;SDS_P1;SDS_P2;PMS_P1;PMS_P2;Temp;Humidity;BMP_temperature;BMP_pressure;BME280_temperature;BME280_humidity;BME280_pressure;Samples;Min_cycle;Max_cycle;Signal;HPM_P1;HPM_P2
2022/07/01 00:00:49;;;;;;;13.37;7.27;;;;;;;24.90;55.46;100380.33;123527;1099;104309;-78
2022/07/01 00:03:20;;;;;;;12.33;7.37;;;;;;;24.84;55.66;100372.44;123514;1099;104261;-78
2022/07/01 00:05:52;;;;;;;13.20;7.10;;;;;;;24.79;55.92;100379.73;123542;1099;104233;-79
2022/07/01 00:08:23;;;;;;;14.03;7.80;;;;;;;24.74;56.13;100388.80;123493;1099;104225;-78
2022/07/01 00:10:55;;;;;;;11.67;6.97;;;;;;;24.74;56.04;100382.52;123581;1099;104287;-79
2022/07/01 00:13:26;;;;;;;16.40;7.40;;;;;;;24.75;55.74;100382.48;123461;1098;104258;-79
2022/07/01 00:15:58;;;;;;;28.50;11.63;;;;;;;24.72;55.87;100382.56;123458;1099;104235;-79
2022/07/01 00:18:29;;;;;;;30.37;12.20;;;;;;;24.71;56.42;100388.88;123487;1099;104222;-79
2022/07/01 00:21:01;;;;;;;30.20;12.90;;;;;;;24.72;56.57;100390.61;123526;1099;104344;-80
2022/07/01 00:23:33;;;;;;;23.67;11.23;;;;;;;24.72;56.66;100387.05;123587;1099;104344;-79
2022/07/01 00:26:05;;;;;;;26.10;11.10;;;;;;;24.69;56.60;100388.00;123716;1099;104238;-78
2022/07/01 00:28:36;;;;;;;20.20;11.03;;;;;;;24.67;56.52;100389.85;123566;1099;104210;-79
2022/07/01 00:31:07;;;;;;;20.33;11.23;;;;;;;24.63;56.72;100398.01;123457;1099;104810;-79
2022/07/01 00:33:39;;;;;;;22.33;11.20;;;;;;;24.55;56.97;100401.71;123492;1098;104229;-78
2022/07/01 00:36:10;;;;;;;21.25;11.40;;;;;;;24.46;56.95;100395.69;123498;1099;104288;-79
2022/07/01 00:38:42;;;;;;;22.97;11.57;;;;;;;24.36;57.24;100397.71;123480;1099;104316;-80
2022/07/01 00:41:13;;;;;;;19.23;11.23;;;;;;;24.27;57.67;100404.16;123607;1099;104235;-80
2022/07/01 00:43:45;;;;;;;18.03;10.00;;;;;;;24.18;57.75;100398.99;123461;1099;104248;-80
2022/07/01 00:46:16;;;;;;;17.70;9.57;;;;;;;24.11;58.05;100397.38;123596;1098;104277;-81
2022/07/01 00:48:48;;;;;;;19.73;10.13;;;;;;;24.04;57.49;100393.94;123456;1099;104304;-79
2022/07/01 00:51:20;;;;;;;18.90;10.03;;;;;;;23.97;58.02;100385.16;123456;1099;104650;-80
2022/07/01 00:53:52;;;;;;;17.87;9.23;;;;;;;23.93;57.92;100386.13;123505;1099;104386;-79
2022/07/01 00:56:23;;;;;;;18.63;9.63;;;;;;;23.90;58.38;100396.03;123603;1099;104715;-79
2022/07/01 00:58:55;;;;;;;19.67;9.60;;;;;;;23.86;58.34;100395.22;123526;1099;104348;-79
2022/07/01 01:01:27;;;;;;;20.93;9.67;;;;;;;23.88;58.16;100389.83;123581;1099;104348;-80
2022/07/01 01:03:59;;;;;;;16.47;9.53;;;;;;;23.94;58.44;100397.75;123509;1099;104401;-80
2022/07/01 01:06:32;;;;;;;16.77;9.15;;;;;;;23.96;58.58;100394.09;123495;1099;104379;-79
2022/07/01 01:09:03;;;;;;;17.80;9.23;;;;;;;23.98;58.72;100391.39;123511;1099;104233;-79
2022/07/01 01:11:35;;;;;;;19.70;8.33;;;;;;;24.01;58.70;100394.91;123501;1099;104261;-80
2022/07/01 01:14:07;;;;;;;17.23;8.57;;;;;;;24.04;58.66;100388.57;123514;1099;119267;-80
2022/07/01 01:16:38;;;;;;;19.17;8.97;;;;;;;24.03;58.93;100393.06;123535;1099;104354;-80
2022/07/01 01:19:10;;;;;;;13.87;8.53;;;;;;;23.97;59.27;100395.00;123490;1098;104422;-78
2022/07/01 01:21:41;;;;;;;15.87;8.53;;;;;;;23.86;59.12;100401.45;123508;1099;104270;-78
2022/07/01 01:24:13;;;;;;;15.65;9.05;;;;;;;23.76;59.27;100407.88;123550;1099;104232;-79
2022/07/01 01:26:44;;;;;;;16.00;8.87;;;;;;;23.64;59.18;100411.70;123483;1099;104314;-79
2022/07/01 01:29:16;;;;;;;14.67;8.97;;;;;;;23.55;59.68;100411.88;123610;1099;104351;-79
2022/07/01 01:31:47;;;;;;;15.93;8.90;;;;;;;23.55;59.51;100411.00;123442;1099;104405;-79
2022/07/01 01:34:19;;;;;;;17.50;8.50;;;;;;;23.57;59.65;100418.07;123538;1098;104290;-79
2022/07/01 01:36:51;;;;;;;14.85;8.80;;;;;;;23.58;59.99;100413.63;123487;1099;104405;-79
2022/07/01 01:39:22;;;;;;;18.13;8.83;;;;;;;23.61;59.79;100419.80;123564;1099;104287;-79
2022/07/01 01:41:54;;;;;;;15.87;8.80;;;;;;;23.62;60.04;100421.56;123579;1099;104248;-79
2022/07/01 01:44:25;;;;;;;16.13;8.80;;;;;;;23.64;60.03;100414.38;123465;1099;104280;-79
2022/07/01 01:46:57;;;;;;;16.67;8.57;;;;;;;23.65;60.28;100420.60;123498;1099;104268;-79
2022/07/01 01:49:28;;;;;;;15.73;8.50;;;;;;;23.63;60.35;100419.76;123459;1099;104696;-80
2022/07/01 01:52:01;;;;;;;16.17;8.77;;;;;;;23.58;60.29;100421.66;123473;1098;104172;-79
2022/07/01 01:54:32;;;;;;;19.33;9.03;;;;;;;23.50;60.32;100432.52;123397;1099;104770;-78
2022/07/01 01:57:04;;;;;;;18.00;9.20;;;;;;;23.37;60.57;100429.16;123462;1099;104328;-80
2022/07/01 01:59:36;;;;;;;16.90;8.67;;;;;;;23.28;60.84;100427.55;123505;1099;104357;-79
2022/07/01 02:02:07;;;;;;;15.50;8.87;;;;;;;23.26;60.76;100426.67;123548;1099;104219;-79
2022/07/01 02:04:39;;;;;;;15.30;8.80;;;;;;;23.22;60.76;100429.42;123530;1099;104338;-79
2022/07/01 02:07:10;;;;;;;19.80;9.70;;;;;;;23.17;60.87;100426.86;123479;1099;104415;-78
2022/07/01 02:09:42;;;;;;;16.57;9.33;;;;;;;23.11;61.17;100433.19;123435;1099;104274;-79
2022/07/01 02:12:13;;;;;;;15.90;9.00;;;;;;;23.05;61.45;100437.74;123473;1098;104245;-79
2022/07/01 02:14:45;;;;;;;16.57;9.03;;;;;;;23.00;61.27;100437.81;123544;1099;104379;-78
2022/07/01 02:17:17;;;;;;;18.33;9.43;;;;;;;22.96;61.51;100442.31;123496;1099;104348;-78
2022/07/01 02:19:48;;;;;;;15.37;9.03;;;;;;;22.96;61.64;100441.44;123417;1099;104399;-79
2022/07/01 02:22:19;;;;;;;16.63;8.80;;;;;;;22.94;61.76;100441.47;123543;1099;104290;-78
2022/07/01 02:24:51;;;;;;;18.57;9.77;;;;;;;22.91;62.07;100451.34;123504;1099;105444;-78
2022/07/01 02:27:22;;;;;;;16.70;9.13;;;;;;;22.97;61.61;100456.59;123508;1099;104252;-79
2022/07/01 02:29:53;;;;;;;15.93;8.97;;;;;;;23.02;61.81;100460.07;123479;1099;104233;-79
2022/07/01 02:32:25;;;;;;;16.97;9.23;;;;;;;23.02;62.05;100467.23;123557;1099;104245;-79
2022/07/01 02:34:56;;;;;;;16.90;9.25;;;;;;;23.03;62.34;100468.97;123584;1098;104255;-79
2022/07/01 02:37:28;;;;;;;19.57;9.07;;;;;;;23.04;62.29;100470.75;123496;1099;104232;-78
2022/07/01 02:39:59;;;;;;;15.30;9.20;;;;;;;23.07;62.06;100468.02;123524;1098;104364;-80
2022/07/01 02:42:35;;;;;;;15.30;8.60;;;;;;;23.08;62.71;100469.80;123526;1099;104265;-79
2022/07/01 02:45:09;;;;;;;14.17;8.87;;;;;;;23.13;62.62;100459.93;123261;1099;104566;-78
2022/07/01 02:47:41;;;;;;;16.87;9.33;;;;;;;23.18;62.46;100471.44;123253;1099;104466;-80
2022/07/01 02:50:14;;;;;;;14.73;8.83;;;;;;;23.18;62.29;100471.44;123559;1099;104930;-79
2022/07/01 02:52:46;;;;;;;15.88;9.05;;;;;;;23.25;62.50;100483.81;123511;1099;104412;-79
2022/07/01 02:55:17;;;;;;;15.47;9.03;;;;;;;23.29;62.15;100474.80;123373;1102;104478;-79
2022/07/01 02:57:51;;;;;;;19.27;9.40;;;;;;;23.30;63.03;100478.38;123396;1101;104674;-79
2022/07/01 03:00:23;;;;;;;16.67;9.23;;;;;;;23.33;62.69;100479.20;123609;1099;104422;-79
2022/07/01 03:02:55;;;;;;;13.53;8.43;;;;;;;23.38;62.66;100479.12;123570;1101;104329;-79
2022/07/01 03:05:27;;;;;;;17.53;9.60;;;;;;;23.41;62.43;100483.55;123421;1099;104306;-79
2022/07/01 03:07:58;;;;;;;16.43;9.47;;;;;;;23.45;62.62;100480.80;123273;1099;104271;-79
2022/07/01 03:10:30;;;;;;;17.37;9.27;;;;;;;23.49;62.79;100487.84;123472;1099;104402;-79
2022/07/01 03:13:01;;;;;;;17.27;9.63;;;;;;;23.51;62.48;100490.49;123305;1099;104396;-79
2022/07/01 03:15:33;;;;;;;19.13;10.20;;;;;;;23.46;62.93;100481.67;123266;1099;104258;-79
2022/07/01 03:18:05;;;;;;;15.80;9.57;;;;;;;23.37;62.77;100493.41;123697;1099;104188;-79
2022/07/01 03:20:36;;;;;;;18.63;9.57;;;;;;;23.31;62.71;100494.42;123626;1099;104348;-79
2022/07/01 03:23:08;;;;;;;18.17;9.97;;;;;;;23.25;63.06;100502.55;123551;1099;104224;-79
2022/07/01 03:25:39;;;;;;;19.60;9.97;;;;;;;23.22;63.42;100502.61;123548;1099;104309;-78
2022/07/01 03:28:10;;;;;;;22.17;10.00;;;;;;;23.20;63.28;100506.20;123694;1099;104696;-79
2022/07/01 03:30:42;;;;;;;33.93;11.17;;;;;;;23.27;63.09;100506.08;123721;1099;104262;-79
2022/07/01 03:33:13;;;;;;;19.67;10.23;;;;;;;23.35;63.54;100497.05;123601;1098;104692;-78
2022/07/01 03:35:46;;;;;;;20.25;10.40;;;;;;;23.43;63.25;100508.50;123584;1099;105092;-79
2022/07/01 03:38:17;;;;;;;24.77;10.43;;;;;;;23.46;63.23;100511.99;123806;1099;104271;-79
2022/07/01 03:40:49;;;;;;;21.55;9.90;;;;;;;23.50;63.20;100519.08;123637;1099;104235;-79
2022/07/01 03:43:20;;;;;;;22.33;10.30;;;;;;;23.52;63.71;100516.38;123679;1098;104265;-79
2022/07/01 03:45:51;;;;;;;18.83;9.97;;;;;;;23.47;63.48;100515.58;123625;1098;104307;-79
2022/07/01 03:48:23;;;;;;;16.77;9.80;;;;;;;23.43;63.39;100519.20;123509;1098;104396;-79
2022/07/01 03:50:54;;;;;;;24.40;10.60;;;;;;;23.46;63.44;100524.52;123601;1099;104312;-79
2022/07/01 03:56:15;;;;;;;19.90;10.40;;;;;;;23.45;63.63;100517.38;123618;1098;104309;-79
2022/07/01 03:58:46;;;;;;;20.60;10.60;;;;;;;23.47;63.70;100521.80;123533;1098;104295;-78
2022/07/01 04:01:18;;;;;;;35.57;11.40;;;;;;;23.54;63.96;100519.02;123547;1099;104428;-79
2022/07/01 04:03:49;;;;;;;17.20;9.73;;;;;;;23.62;64.00;100514.41;123625;1099;104648;-79
2022/07/01 04:06:21;;;;;;;18.27;10.73;;;;;;;23.71;63.77;100518.73;123547;1098;104251;-79
2022/07/01 04:08:54;;;;;;;21.23;10.63;;;;;;;23.74;63.72;100521.34;123547;1099;104303;-79
2022/07/01 04:11:25;;;;;;;19.53;10.13;;;;;;;23.77;63.83;100523.97;123603;1099;104729;-80
2022/07/01 04:13:57;;;;;;;20.23;9.83;;;;;;;23.81;63.90;100525.66;123500;1099;104488;-79
2022/07/01 04:16:29;;;;;;;21.50;10.40;;;;;;;23.88;64.10;100530.04;123534;1099;104338;-79
2022/07/01 04:19:01;;;;;;;18.00;10.20;;;;;;;23.93;63.74;100530.83;123581;1099;104219;-79
2022/07/01 04:24:24;;;;;;;17.97;9.77;;;;;;;24.04;63.37;100533.30;123900;1099;104699;-80
2022/07/01 04:26:55;;;;;;;20.13;9.47;;;;;;;24.13;63.44;100534.93;123688;1099;104360;-78
2022/07/01 04:29:27;;;;;;;15.60;8.90;;;;;;;24.20;63.59;100534.78;123751;1099;104274;-78
2022/07/01 04:31:58;;;;;;;13.65;8.40;;;;;;;24.26;62.91;100536.43;123673;1099;104274;-78
2022/07/01 04:34:30;;;;;;;14.23;8.63;;;;;;;24.32;63.20;100544.35;123695;1099;104239;-78
2022/07/01 04:37:01;;;;;;;15.23;8.40;;;;;;;24.38;63.00;100544.23;123585;1099;104245;-78
2022/07/01 04:39:34;;;;;;;15.03;8.90;;;;;;;24.44;62.44;100545.91;123667;1099;104443;-80
2022/07/01 04:42:06;;;;;;;15.98;8.58;;;;;;;24.45;62.75;100549.46;123794;1099;104267;-79
2022/07/01 04:44:39;;;;;;;15.60;8.87;;;;;;;24.51;62.51;100549.33;123720;1099;104316;-78
2022/07/01 04:47:10;;;;;;;16.50;8.93;;;;;;;24.56;62.43;100542.09;123906;1099;104345;-78
2022/07/01 04:49:42;;;;;;;13.70;8.57;;;;;;;24.60;62.60;100549.17;124230;1099;104270;-79
2022/07/01 04:52:13;;;;;;;12.57;8.43;;;;;;;24.62;62.18;100549.14;124095;1099;104406;-78
2022/07/01 04:54:44;;;;;;;17.03;8.97;;;;;;;24.69;62.10;100548.11;124197;1098;104258;-79
2022/07/01 04:57:16;;;;;;;14.77;9.07;;;;;;;24.76;62.14;100560.45;123852;1099;104229;-78
2022/07/01 04:59:47;;;;;;;15.53;8.30;;;;;;;24.80;62.10;100556.79;124091;1098;104348;-79
2022/07/01 05:02:19;;;;;;;20.90;9.10;;;;;;;24.86;61.80;100551.28;124205;1099;104258;-79
2022/07/01 05:04:50;;;;;;;16.85;8.60;;;;;;;24.91;61.42;100556.55;124545;1099;104313;-79
2022/07/01 05:10:13;;;;;;;15.90;8.37;;;;;;;24.95;61.67;100555.58;124517;1099;104229;-79
2022/07/01 05:12:48;;;;;;;14.63;8.03;;;;;;;25.03;61.64;100552.71;124780;1099;104297;-80
2022/07/01 05:15:23;;;;;;;15.60;8.67;;;;;;;25.09;61.26;100552.57;124698;1099;102608;-78
2022/07/01 05:23:35;;;;;;;14.90;7.57;;;;;;;25.28;60.76;100561.06;124652;1098;102927;-80
2022/07/01 05:26:15;;;;;;;15.10;7.60;;;;;;;25.33;60.80;100560.98;124203;1099;104416;-79
2022/07/01 05:28:51;;;;;;;17.93;8.10;;;;;;;25.37;60.37;100558.19;124298;1099;104367;-80
2022/07/01 05:31:23;;;;;;;12.55;6.90;;;;;;;25.42;60.32;100556.26;124171;1099;104232;-79
2022/07/01 05:33:55;;;;;;;11.40;6.60;;;;;;;25.45;60.44;100558.87;124620;1099;104265;-78
2022/07/01 05:36:26;;;;;;;12.63;7.17;;;;;;;25.44;59.83;100562.47;124342;1099;104284;-79
2022/07/01 05:39:00;;;;;;;10.47;6.57;;;;;;;25.49;59.92;100562.35;124492;1098;104395;-78
2022/07/01 05:41:36;;;;;;;11.00;6.63;;;;;;;25.55;59.54;100555.95;124600;1099;104143;-79
2022/07/01 05:44:12;;;;;;;11.87;6.57;;;;;;;25.61;59.57;100563.86;124582;1098;104698;-79
2022/07/01 05:46:43;;;;;;;;;;;;;;;25.65;59.40;100554.81;124919;1099;104335;-79
2022/07/01 05:49:15;;;;;;;13.43;6.70;;;;;;;25.71;59.72;100560.02;125001;1099;105767;-79
2022/07/01 05:51:50;;;;;;;13.20;6.80;;;;;;;25.72;59.54;100561.77;124993;1099;105980;-79
2022/07/01 05:54:40;;;;;;;10.27;6.57;;;;;;;25.71;59.09;100568.09;126266;1099;102581;-80
2022/07/01 05:57:15;;;;;;;13.63;6.60;;;;;;;25.76;59.21;100559.91;126847;1099;102819;-79
2022/07/01 05:59:48;;;;;;;16.30;7.13;;;;;;;25.82;59.19;100565.98;126441;1099;102439;-81
2022/07/01 06:02:21;;;;;;;12.60;6.80;;;;;;;25.90;59.02;100563.09;126099;1098;102664;-79
2022/07/01 06:04:59;;;;;;;13.22;7.58;;;;;;;25.98;59.00;100563.80;124450;1100;104410;-81
2022/07/01 06:07:40;;;;;;;11.93;7.27;;;;;;;26.03;58.79;100557.42;124568;1099;104399;-80
2022/07/01 06:10:15;;;;;;;13.22;7.25;;;;;;;26.06;58.01;100560.03;126830;1099;110798;-80
2022/07/01 06:12:49;;;;;;;14.97;7.10;;;;;;;26.07;58.03;100568.05;126825;1099;102514;-80
2022/07/01 06:15:31;;;;;;;14.87;7.47;;;;;;;26.13;58.25;100564.29;126253;1099;102337;-79
2022/07/01 06:18:24;;;;;;;13.73;7.07;;;;;;;26.13;57.76;100564.29;125461;1098;104249;-79
2022/07/01 06:21:07;;;;;;;13.27;7.27;;;;;;;26.18;57.94;100573.14;124608;1099;104122;-82
2022/07/01 06:23:39;;;;;;;14.60;7.60;;;;;;;26.24;58.27;100556.83;125422;1099;102860;-82
2022/07/01 06:26:13;;;;;;;14.63;7.27;;;;;;;26.34;57.55;100555.63;124830;1099;104236;-81
2022/07/01 06:28:46;;;;;;;12.03;6.53;;;;;;;26.42;57.58;100552.70;126122;1099;102637;-80
2022/07/01 06:31:23;;;;;;;13.43;7.40;;;;;;;26.51;57.22;100554.27;126802;1099;102198;-81
2022/07/01 06:34:02;;;;;;;14.53;7.40;;;;;;;26.55;56.83;100551.44;126791;1098;102101;-84
2022/07/01 06:36:34;;;;;;;14.80;7.37;;;;;;;26.61;56.37;100549.48;126875;1098;102063;-79
2022/07/01 06:39:08;;;;;;;13.47;7.20;;;;;;;26.65;56.43;100551.16;126053;1098;104153;-80
2022/07/01 06:41:44;;;;;;;12.77;6.60;;;;;;;26.71;56.07;100553.70;124855;1099;104303;-81
2022/07/01 06:44:20;;;;;;;12.17;6.90;;;;;;;26.79;56.68;100548.95;124768;1098;104383;-80
2022/07/01 06:47:03;;;;;;;14.70;7.77;;;;;;;26.89;56.01;100555.80;125145;1099;104232;-80
2022/07/01 06:49:40;;;;;;;13.60;6.90;;;;;;;26.99;56.02;100555.51;125020;1099;104216;-79
2022/07/01 06:52:17;;;;;;;12.73;6.67;;;;;;;27.11;55.36;100560.50;124955;1099;102757;-79
2022/07/01 06:54:55;;;;;;;12.50;6.80;;;;;;;27.23;55.35;100557.42;124626;1099;104180;-81
2022/07/01 06:57:29;;;;;;;11.63;6.80;;;;;;;27.24;54.20;100550.24;124444;1099;104163;-80
2022/07/01 07:00:09;;;;;;;12.03;6.47;;;;;;;27.30;54.23;100558.13;124829;1098;104224;-79
2022/07/01 07:02:42;;;;;;;12.03;6.57;;;;;;;27.38;54.11;100553.39;124955;1099;104252;-80
2022/07/01 07:05:21;;;;;;;14.38;6.70;;;;;;;27.53;53.56;100557.36;125028;1098;104160;-79
2022/07/01 07:07:56;;;;;;;13.07;6.43;;;;;;;27.59;52.31;100562.55;124940;1099;104261;-79
2022/07/01 07:10:31;;;;;;;10.98;6.42;;;;;;;27.66;52.12;100554.25;124901;1099;104285;-82
2022/07/01 07:13:10;;;;;;;15.80;7.00;;;;;;;27.73;51.49;100547.73;125047;1099;104054;-82
2022/07/01 07:16:07;;;;;;;13.53;6.50;;;;;;;27.92;51.69;100551.52;126042;1099;102826;-83
2022/07/01 07:19:14;;;;;;;;;;;;;;;;;;;;;
2022/07/01 07:21:50;;;;;;;12.50;5.93;;;;;;;28.25;50.26;100544.98;125875;1099;118634;-83
2022/07/01 07:24:25;;;;;;;13.75;6.25;;;;;;;28.33;49.48;100549.17;125899;1099;103626;-82
2022/07/01 07:27:10;;;;;;;9.70;5.90;;;;;;;28.48;48.64;100555.80;125748;1099;104220;-81
2022/07/01 07:29:46;;;;;;;10.83;6.37;;;;;;;28.63;48.19;100558.91;125822;1099;104239;-81
2022/07/01 07:32:19;;;;;;;12.23;6.27;;;;;;;28.82;48.14;100562.63;125700;1099;102744;-81
2022/07/01 07:35:20;;;;;;;10.63;5.90;;;;;;;28.98;48.00;100557.48;125810;1099;103033;-81
2022/07/01 07:38:07;;;;;;;13.10;6.10;;;;;;;29.18;47.79;100558.52;125878;1099;105069;-82
2022/07/01 07:40:41;;;;;;;12.27;6.50;;;;;;;29.33;47.20;100563.33;125129;1099;104245;-81
2022/07/01 07:43:16;;;;;;;14.23;6.20;;;;;;;29.40;45.83;100558.54;124949;1099;104160;-81
2022/07/01 07:45:52;;;;;;;12.67;5.77;;;;;;;29.51;45.80;100556.25;125727;1099;102926;-83
2022/07/01 07:48:35;;;;;;;10.40;5.77;;;;;;;29.57;44.86;100557.83;125996;1099;103751;-81
2022/07/01 07:51:14;;;;;;;9.27;6.07;;;;;;;29.68;45.15;100563.65;126043;1099;104136;-80
2022/07/01 07:53:46;;;;;;;11.10;5.80;;;;;;;29.78;44.87;100557.84;125734;1099;104063;-80
2022/07/01 07:56:22;;;;;;;12.23;6.20;;;;;;;29.88;44.08;100556.55;124908;1098;104159;-81
2022/07/01 07:58:55;;;;;;;9.85;5.75;;;;;;;29.92;44.09;100555.47;124945;1099;104159;-80
2022/07/01 08:01:28;;;;;;;12.50;6.73;;;;;;;30.03;44.57;100550.45;124908;1099;104187;-80
2022/07/01 08:04:03;;;;;;;15.20;6.17;;;;;;;30.13;44.06;100550.91;125888;1098;104169;-81
2022/07/01 08:06:37;;;;;;;12.28;6.12;;;;;;;30.20;43.63;100543.39;124764;1099;104325;-81
2022/07/01 08:09:18;;;;;;;9.67;6.37;;;;;;;30.32;43.55;100548.24;125022;1099;104254;-81
2022/07/01 08:12:19;;;;;;;11.03;5.87;;;;;;;30.51;43.27;100542.91;124839;1099;104294;-80
2022/07/01 08:14:53;;;;;;;15.13;5.73;;;;;;;30.63;42.32;100552.27;125648;1099;104265;-79
2022/07/01 08:17:27;;;;;;;8.90;5.40;;;;;;;30.69;41.97;100548.41;124799;1099;104198;-79
2022/07/01 08:20:18;;;;;;;7.67;5.40;;;;;;;30.82;41.38;100546.84;124772;1099;103003;-80
2022/07/01 08:22:50;;;;;;;9.43;5.40;;;;;;;30.82;40.39;100542.33;125108;1099;104156;-79
2022/07/01 08:25:22;;;;;;;9.97;5.47;;;;;;;30.79;39.91;100547.89;126040;1099;102209;-79
2022/07/01 08:27:59;;;;;;;10.50;5.60;;;;;;;31.01;39.45;100544.18;125026;1099;103013;-80
2022/07/01 08:30:35;;;;;;;8.10;5.50;;;;;;;31.08;39.73;100559.16;125173;1099;104268;-79
2022/07/01 08:33:13;;;;;;;12.40;5.27;;;;;;;31.13;39.42;100543.55;125285;1099;104319;-81
2022/07/01 08:35:46;;;;;;;13.43;6.03;;;;;;;31.36;39.25;100533.40;124700;1098;105680;-78
2022/07/01 08:38:23;;;;;;;9.30;5.63;;;;;;;31.54;38.87;100523.50;124841;1099;103459;-83
2022/07/01 08:40:56;;;;;;;13.40;5.93;;;;;;;31.66;39.10;100520.12;125780;1099;104187;-82
2022/07/01 08:43:32;;;;;;;12.33;5.97;;;;;;;31.69;38.91;100519.09;125752;1099;102498;-81
2022/07/01 08:46:12;;;;;;;8.47;5.33;;;;;;;31.84;39.03;100525.56;125849;1099;104265;-82
2022/07/01 08:48:51;;;;;;;12.77;5.87;;;;;;;31.99;38.68;100526.56;125930;1099;102459;-82
2022/07/01 08:51:25;;;;;;;10.50;5.97;;;;;;;32.08;38.76;100518.83;124901;1098;104166;-80
2022/07/01 08:54:07;;;;;;;11.47;5.60;;;;;;;31.94;36.99;100525.94;124997;1099;119131;-81
2022/07/01 08:59:28;;;;;;;8.17;5.93;;;;;;;31.62;37.05;100521.25;124792;1099;104223;-84
2022/07/01 09:02:15;;;;;;;10.47;5.43;;;;;;;31.76;37.68;100520.53;125801;1099;102661;-81
2022/07/01 09:05:06;;;;;;;12.30;5.45;;;;;;;31.82;37.87;100516.60;125130;1099;102446;-83
2022/07/01 09:07:42;;;;;;;9.70;5.43;;;;;;;31.83;37.39;100519.23;125136;1099;104160;-82
2022/07/01 09:10:22;;;;;;;12.37;5.60;;;;;;;31.86;37.49;100518.20;124532;1101;104511;-82
2022/07/01 09:13:05;;;;;;;11.93;5.20;;;;;;;32.05;37.53;100507.23;125633;1099;103555;-82
2022/07/01 09:15:40;;;;;;;7.12;4.90;;;;;;;32.11;36.60;100519.64;125254;1099;102598;-81
2022/07/01 09:18:17;;;;;;;9.57;4.97;;;;;;;31.96;36.64;100513.16;125339;1099;104352;-82
2022/07/01 09:20:51;;;;;;;13.07;5.13;;;;;;;31.93;36.37;100519.64;124317;1099;104312;-82
2022/07/01 09:23:37;;;;;;;6.00;4.60;;;;;;;32.03;36.60;100515.46;125263;1099;104459;-81
2022/07/01 09:26:19;;;;;;;6.07;4.30;;;;;;;32.02;35.82;100518.25;125796;1099;104163;-81
2022/07/01 09:28:59;;;;;;;7.63;4.30;;;;;;;32.01;35.99;100519.23;124798;1099;104395;-80
2022/07/01 09:31:36;;;;;;;6.73;4.00;;;;;;;32.00;35.62;100507.48;124361;1099;104235;-79
2022/07/01 09:34:09;;;;;;;7.03;4.27;;;;;;;32.00;35.41;100512.91;124723;1099;104207;-80
2022/07/01 09:36:52;;;;;;;6.47;4.45;;;;;;;31.99;35.10;100503.04;124415;1099;102560;-81
2022/07/01 09:39:26;;;;;;;8.03;4.50;;;;;;;32.04;35.00;100498.23;124802;1102;103163;-83
2022/07/01 09:42:05;;;;;;;7.47;4.60;;;;;;;32.21;35.59;100504.59;125755;1099;103103;-82
2022/07/01 09:45:01;;;;;;;6.33;4.33;;;;;;;32.21;34.67;100501.87;125938;1098;104172;-81
2022/07/01 09:47:37;;;;;;;5.13;4.10;;;;;;;32.19;34.85;100499.25;125973;1099;104197;-81
2022/07/01 09:50:11;;;;;;;5.43;4.00;;;;;;;32.08;34.82;100497.11;124798;1099;104256;-82
2022/07/01 09:52:44;;;;;;;7.37;4.80;;;;;;;32.07;34.46;100499.91;125772;1099;104264;-80
2022/07/01 09:55:32;;;;;;;5.90;4.30;;;;;;;32.16;35.16;100503.97;125958;1099;104258;-81
2022/07/01 09:58:08;;;;;;;6.17;4.10;;;;;;;32.16;34.72;100499.41;125338;1099;104169;-81
2022/07/01 10:00:45;;;;;;;7.20;4.53;;;;;;;32.08;34.63;100498.93;125661;1099;104332;-82
2022/07/01 10:03:21;;;;;;;8.50;4.30;;;;;;;32.12;34.56;100483.41;125679;1099;102272;-81
2022/07/01 10:06:00;;;;;;;7.33;4.70;;;;;;;32.20;34.29;100483.86;125413;1099;104230;-81
2022/07/01 10:09:00;;;;;;;7.10;4.60;;;;;;;32.22;34.52;100488.22;125425;1099;104146;-81
2022/07/01 10:12:10;;;;;;;8.60;4.67;;;;;;;32.19;34.55;100482.09;125335;1102;102427;-83
2022/07/01 10:14:46;;;;;;;6.50;4.40;;;;;;;32.28;34.70;100481.59;124809;1099;102313;-80
2022/07/01 10:17:33;;;;;;;6.83;4.43;;;;;;;32.47;34.77;100478.71;124901;1099;103284;-80
2022/07/01 10:20:15;;;;;;;9.60;4.20;;;;;;;32.47;34.45;100470.56;125129;1099;104702;-80
2022/07/01 10:22:48;;;;;;;7.30;4.23;;;;;;;32.48;34.11;100472.33;125838;1099;102254;-82
2022/07/01 10:25:46;;;;;;;7.23;4.40;;;;;;;32.48;34.24;100472.33;124685;1099;104188;-81
2022/07/01 10:28:32;;;;;;;7.20;4.20;;;;;;;32.56;33.94;100461.90;125407;1099;103118;-84
2022/07/01 10:31:11;;;;;;;7.47;4.47;;;;;;;32.69;34.04;100469.38;126959;1099;102111;-81
2022/07/01 10:33:48;;;;;;;6.10;4.20;;;;;;;32.64;33.31;100464.21;126751;1098;101774;-80
2022/07/01 10:36:26;;;;;;;5.70;4.30;;;;;;;32.63;33.59;100458.83;125433;1099;104219;-81
2022/07/01 10:39:27;;;;;;;8.60;4.23;;;;;;;32.68;33.50;100454.94;125962;1099;104203;-82
2022/07/01 10:42:08;;;;;;;6.03;4.13;;;;;;;32.72;33.34;100452.91;126024;1099;103990;-83
2022/07/01 10:45:01;;;;;;;9.70;4.40;;;;;;;32.76;33.45;100446.34;126078;1099;103721;-85
2022/07/01 10:47:34;;;;;;;9.35;4.08;;;;;;;32.86;33.25;100447.54;126167;1099;104162;-82
2022/07/01 10:50:15;;;;;;;6.83;3.70;;;;;;;32.76;32.48;100447.21;126041;1099;104268;-84
2022/07/01 10:53:03;;;;;;;7.93;3.90;;;;;;;32.79;32.56;100446.17;126173;1099;104127;-82
2022/07/01 10:55:48;;;;;;;5.70;4.10;;;;;;;32.72;32.30;100437.47;126016;1099;104141;-82
2022/07/01 10:58:36;;;;;;;7.13;3.60;;;;;;;32.75;32.41;100439.15;126748;1099;102515;-82
2022/07/01 11:01:15;;;;;;;4.73;3.80;;;;;;;32.72;32.14;100445.62;127074;1098;102546;-83
2022/07/01 11:03:49;;;;;;;7.90;4.50;;;;;;;32.69;32.04;100431.36;125887;1099;102959;-82
2022/07/01 11:06:23;;;;;;;9.53;4.20;;;;;;;32.69;31.85;100425.92;125992;1099;104197;-82
2022/07/01 11:08:56;;;;;;;7.40;3.87;;;;;;;32.81;31.99;100425.20;126091;1099;103625;-83
2022/07/01 11:11:37;;;;;;;4.97;4.10;;;;;;;32.90;32.08;100427.38;125707;1099;104190;-82
2022/07/01 11:14:09;;;;;;;5.47;4.00;;;;;;;32.82;31.61;100431.50;125903;1099;104297;-82
2022/07/01 11:16:47;;;;;;;6.50;3.83;;;;;;;32.77;31.87;100421.80;125846;1099;104265;-82
2022/07/01 11:19:24;;;;;;;6.07;4.17;;;;;;;32.61;31.61;100410.93;125934;1099;104361;-83
2022/07/01 11:22:05;;;;;;;4.37;3.97;;;;;;;32.68;31.96;100418.72;125881;1098;103837;-81
2022/07/01 11:24:42;;;;;;;8.10;4.00;;;;;;;32.67;31.46;100422.43;125601;1099;104144;-82
2022/07/01 11:27:17;;;;;;;7.10;3.90;;;;;;;32.78;31.21;100414.52;125698;1099;103678;-83
2022/07/01 11:30:12;;;;;;;10.13;4.07;;;;;;;32.83;30.91;100403.38;116725;1099;10001591;-85
2022/07/01 11:32:50;;;;;;;8.90;4.00;;;;;;;32.89;31.22;100403.88;125776;1099;104274;-83
2022/07/01 11:41:24;;;;;;;9.37;4.13;;;;;;;32.72;30.03;100398.58;125931;1099;104402;-81
2022/07/01 11:44:07;;;;;;;9.90;4.00;;;;;;;32.83;30.25;100400.66;125711;1098;103855;-83
2022/07/01 11:46:50;;;;;;;9.57;3.93;;;;;;;32.84;30.03;100396.99;125636;1099;104332;-83
2022/07/01 11:49:39;;;;;;;5.17;3.70;;;;;;;32.94;30.05;100399.08;125832;1099;104229;-83
2022/07/01 11:52:28;;;;;;;7.17;3.50;;;;;;;33.02;29.73;100397.72;125721;1099;103325;-84
2022/07/01 11:55:07;;;;;;;4.70;3.60;;;;;;;32.99;29.45;100395.19;125958;1099;102527;-85
2022/07/01 11:57:58;;;;;;;5.40;3.90;;;;;;;32.97;29.54;100392.56;125507;1099;104163;-83
2022/07/01 12:00:42;;;;;;;6.03;3.70;;;;;;;33.05;29.49;100400.25;125198;1102;104427;-82
2022/07/01 12:03:29;;;;;;;7.27;3.77;;;;;;;33.14;29.52;100400.60;125344;1101;104650;-82
2022/07/01 12:06:18;;;;;;;5.60;3.47;;;;;;;33.11;29.17;100397.17;125186;1102;104380;-83